Language: 


Des rapports , des résumés tant et plus, au choix de chacun....


Données Historiques de Météogheer
Journalier Rapport pour Janvier 18, 2018 Unitée:  Les deux    Impériale   Métrique
Suivant Jour »
Journalier Hebdomadaire Mensuel Annuel Sur mesure
  Max: Min: Moyenne:
Température: 53.2 °F /  11.8 °C 32 °F /  0.0 °C 46.2 °F /  7.9 °C
Point de rosée: 50 °F /  10.0 °C 33.8 °F /  1.0 °C 40.5 °F /  4.7 °C
Humidité: 98% 0% 79%
Vent: 41.6mph /  66.9km/h - 12.7mph /  20.4km/h
Rafales: 56.8mph /  91.4km/h - -
Vent- - WSW
Pression: 29.7 in /  1007.0 hPa 0 in /  0.0 hPa -
Pluie: 0 in /  0.0 mm    
Historical Graphs
 
 
Données tabulaires pour Janvier 18, 2018
Heure Température Point de rosée Pression Vent Vent Rafales Humidité Pluie Taux (Horaire) Conditions
00:04 43.2 °F /  6.2 °C 37.4 °F /  3.0 °C 29.7in /  1007.0hPa WSW 8.5mph /  13.7km/h 14.3mph /  23.0km/h 81% 0in /  0.0mm
00:09 43.2 °F /  6.2 °C 37.4 °F /  3.0 °C 29.7in /  1007.0hPa SSW 11mph /  17.7km/h 11mph /  17.7km/h 81% 0in /  0.0mm
00:14 43.3 °F /  6.3 °C 37.4 °F /  3.0 °C 29.7in /  1007.0hPa SSW 10.7mph /  17.2km/h 11mph /  17.7km/h 81% 0in /  0.0mm
00:19 43.3 °F /  6.3 °C 39.2 °F /  4.0 °C 29.7in /  1007.0hPa SW 9.8mph /  15.8km/h 11.9mph /  19.1km/h 82% 0in /  0.0mm
00:24 43.3 °F /  6.3 °C 39.2 °F /  4.0 °C 29.7in /  1007.0hPa WSW 10.1mph /  16.3km/h 15.4mph /  24.8km/h 82% 0in /  0.0mm
00:29 43.3 °F /  6.3 °C 39.2 °F /  4.0 °C 29.7in /  1006.0hPa WSW 8.7mph /  14.0km/h 15.4mph /  24.8km/h 82% 0in /  0.0mm
00:34 43.3 °F /  6.3 °C 39.2 °F /  4.0 °C 29.7in /  1006.0hPa WSW 8.7mph /  14.0km/h 15.4mph /  24.8km/h 82% 0in /  0.0mm
00:39 43.3 °F /  6.3 °C 39.2 °F /  4.0 °C 29.7in /  1006.0hPa SW 9.8mph /  15.8km/h 10.7mph /  17.2km/h 82% 0in /  0.0mm
00:44 43.3 °F /  6.3 °C 39.2 °F /  4.0 °C 29.7in /  1005.0hPa SSW 7.6mph /  12.2km/h 10.7mph /  17.2km/h 82% 0in /  0.0mm
00:49 43.3 °F /  6.3 °C 39.2 °F /  4.0 °C 29.7in /  1005.0hPa SSW 8.5mph /  13.7km/h 10.3mph /  16.6km/h 82% 0.01in /  0.3mm
00:54 43.3 °F /  6.3 °C 39.2 °F /  4.0 °C 29.7in /  1005.0hPa SSW 6.5mph /  10.5km/h 10.1mph /  16.3km/h 82% 0.01in /  0.3mm
00:59 43.3 °F /  6.3 °C 39.2 °F /  4.0 °C 29.6in /  1003.9hPa WSW 7.2mph /  11.6km/h 10.3mph /  16.6km/h 82% 0.01in /  0.3mm
01:04 43.3 °F /  6.3 °C 39.2 °F /  4.0 °C 29.6in /  1003.9hPa SSW 7.2mph /  11.6km/h 10.3mph /  16.6km/h 82% 0.02in /  0.5mm
01:09 43.3 °F /  6.3 °C 39.2 °F /  4.0 °C 29.6in /  1003.9hPa SSW 5.8mph /  9.3km/h 10.1mph /  16.3km/h 82% 0.02in /  0.5mm
01:14 43.3 °F /  6.3 °C 39.2 °F /  4.0 °C 29.7in /  1005.0hPa SSW 7.6mph /  12.2km/h 10.3mph /  16.6km/h 82% 0.02in /  0.5mm
01:19 43.3 °F /  6.3 °C 39.2 °F /  4.0 °C 29.7in /  1005.0hPa SSW 4mph /  6.4km/h 11mph /  17.7km/h 82% 0.02in /  0.5mm
01:24 43.3 °F /  6.3 °C 39.2 °F /  4.0 °C 29.7in /  1005.0hPa SW 8.5mph /  13.7km/h 11.9mph /  19.1km/h 82% 0.02in /  0.5mm
01:29 43.3 °F /  6.3 °C 39.2 °F /  4.0 °C 29.6in /  1002.9hPa SW 6mph /  9.7km/h 11.9mph /  19.1km/h 82% 0.02in /  0.5mm
01:35 43.3 °F /  6.3 °C 39.2 °F /  4.0 °C 29.6in /  1002.9hPa SSW 10.1mph /  16.3km/h 12.1mph /  19.5km/h 82% 0.02in /  0.5mm
01:40 43.3 °F /  6.3 °C 39.2 °F /  4.0 °C 29.6in /  1002.9hPa SW 10.7mph /  17.2km/h 14.5mph /  23.3km/h 82% 0.02in /  0.5mm
01:45 42.1 °F /  5.6 °C 42.8 °F /  6.0 °C 29.6in /  1002.9hPa South 12.1mph /  19.5km/h 17.2mph /  27.7km/h 98% 0.01in /  0.3mm
01:50 42.1 °F /  5.6 °C 42.8 °F /  6.0 °C 29.6in /  1002.9hPa SSW 9.8mph /  15.8km/h 17.2mph /  27.7km/h 98% 0.02in /  0.5mm
01:55 42.1 °F /  5.6 °C 42.8 °F /  6.0 °C 29.6in /  1002.9hPa SSW 12.1mph /  19.5km/h 16.3mph /  26.2km/h 98% 0.02in /  0.5mm
02:00 42.3 °F /  5.7 °C 42.8 °F /  6.0 °C 29.6in /  1001.9hPa SW 14.8mph /  23.8km/h 19mph /  30.6km/h 98% 0.02in /  0.5mm
02:05 42.3 °F /  5.7 °C 42.8 °F /  6.0 °C 29.6in /  1001.9hPa SSW 13.2mph /  21.2km/h 19mph /  30.6km/h 98% 0.02in /  0.5mm
02:10 42.3 °F /  5.7 °C 42.8 °F /  6.0 °C 29.6in /  1001.9hPa SSW 12.1mph /  19.5km/h 20.8mph /  33.5km/h 98% 0.03in /  0.8mm
02:15 42.3 °F /  5.7 °C 42.8 °F /  6.0 °C 29.5in /  999.9hPa SSW 15.7mph /  25.3km/h 20.8mph /  33.5km/h 98% 0.05in /  1.3mm
02:20 42.3 °F /  5.7 °C 42.8 °F /  6.0 °C 29.5in /  999.9hPa SSW 15.2mph /  24.5km/h 17.7mph /  28.5km/h 98% 0.05in /  1.3mm
02:25 42.3 °F /  5.7 °C 42.8 °F /  6.0 °C 29.5in /  999.9hPa WSW 12.8mph /  20.6km/h 19.5mph /  31.4km/h 98% 0.06in /  1.5mm
02:30 42.3 °F /  5.7 °C 42.8 °F /  6.0 °C 29.6in /  1000.9hPa SSW 11mph /  17.7km/h 19.5mph /  31.4km/h 98% 0.07in /  1.8mm
02:35 42.3 °F /  5.7 °C 42.8 °F /  6.0 °C 29.6in /  1000.9hPa WSW 10.7mph /  17.2km/h 19.7mph /  31.7km/h 98% 0.09in /  2.3mm
02:40 42.3 °F /  5.7 °C 42.8 °F /  6.0 °C 29.6in /  1000.9hPa SSW 16.6mph /  26.7km/h 20.1mph /  32.3km/h 98% 0.09in /  2.3mm
02:45 42.3 °F /  5.7 °C 42.8 °F /  6.0 °C 29.5in /  998.9hPa SW 10.7mph /  17.2km/h 20.1mph /  32.3km/h 98% 0.09in /  2.3mm
02:50 42.4 °F /  5.8 °C 42.8 °F /  6.0 °C 29.5in /  998.9hPa SW 15.7mph /  25.3km/h 17.2mph /  27.7km/h 98% 0.09in /  2.3mm
02:55 42.4 °F /  5.8 °C 42.8 °F /  6.0 °C 29.5in /  998.9hPa SSW 10.7mph /  17.2km/h 17.2mph /  27.7km/h 98% 0.09in /  2.3mm
03:00 42.4 °F /  5.8 °C 42.8 °F /  6.0 °C 29.5in /  998.9hPa SSW 15.2mph /  24.5km/h 17.2mph /  27.7km/h 98% 0.07in /  1.8mm
03:05 42.4 °F /  5.8 °C 42.8 °F /  6.0 °C 29.5in /  998.9hPa SSW 17.9mph /  28.8km/h 19.5mph /  31.4km/h 98% 0.07in /  1.8mm
03:10 42.4 °F /  5.8 °C 42.8 °F /  6.0 °C 29.5in /  998.9hPa WSW 11mph /  17.7km/h 19.5mph /  31.4km/h 98% 0.06in /  1.5mm
03:15 42.6 °F /  5.9 °C 42.8 °F /  6.0 °C 29.5in /  997.9hPa SSW 7.8mph /  12.6km/h 16.6mph /  26.7km/h 98% 0.05in /  1.3mm
03:20 42.4 °F /  5.8 °C 42.8 °F /  6.0 °C 29.5in /  997.9hPa SW 13mph /  20.9km/h 15.2mph /  24.5km/h 98% 0.03in /  0.8mm
03:25 42.8 °F /  6.0 °C 42.8 °F /  6.0 °C 29.5in /  997.9hPa SW 14.5mph /  23.3km/h 17.7mph /  28.5km/h 98% 0.02in /  0.5mm
03:30 42.8 °F /  6.0 °C 42.8 °F /  6.0 °C 29.4in /  996.8hPa SSW 13.4mph /  21.6km/h 17.9mph /  28.8km/h 98% 0.02in /  0.5mm
03:35 43 °F /  6.1 °C 42.8 °F /  6.0 °C 29.4in /  996.8hPa WSW 12.3mph /  19.8km/h 17.9mph /  28.8km/h 98% 0.01in /  0.3mm
03:40 43 °F /  6.1 °C 42.8 °F /  6.0 °C 29.4in /  996.8hPa South 7.8mph /  12.6km/h 17.7mph /  28.5km/h 98% 0.01in /  0.3mm
03:45 43.3 °F /  6.3 °C 42.8 °F /  6.0 °C 29.4in /  996.8hPa SW 10.1mph /  16.3km/h 19.5mph /  31.4km/h 98% 0.01in /  0.3mm
03:50 43.3 °F /  6.3 °C 42.8 °F /  6.0 °C 29.4in /  996.8hPa SW 17.4mph /  28.0km/h 19.5mph /  31.4km/h 98% 0in /  0.0mm
03:55 43.7 °F /  6.5 °C 44.6 °F /  7.0 °C 29.4in /  996.8hPa SW 12.5mph /  20.1km/h 19.9mph /  32.0km/h 98% 0in /  0.0mm
04:00 43.7 °F /  6.5 °C 44.6 °F /  7.0 °C 29.4in /  996.8hPa SW 13.2mph /  21.2km/h 19.9mph /  32.0km/h 98% 0in /  0.0mm
04:05 44.1 °F /  6.7 °C 44.6 °F /  7.0 °C 29.4in /  996.8hPa SSW 13.2mph /  21.2km/h 23mph /  37.0km/h 98% 0in /  0.0mm
04:10 44.2 °F /  6.8 °C 44.6 °F /  7.0 °C 29.4in /  996.8hPa WSW 13mph /  20.9km/h 23mph /  37.0km/h 98% 0in /  0.0mm
04:15 44.6 °F /  7.0 °C 44.6 °F /  7.0 °C 29.4in /  996.2hPa WSW 17.7mph /  28.5km/h 18.8mph /  30.2km/h 98% 0in /  0.0mm
04:21 44.8 °F /  7.1 °C 44.6 °F /  7.0 °C 29.4in /  996.2hPa WSW 15.2mph /  24.5km/h 19.9mph /  32.0km/h 98% 0in /  0.0mm
04:26 45 °F /  7.2 °C 44.6 °F /  7.0 °C 29.4in /  996.2hPa WSW 12.5mph /  20.1km/h 19.9mph /  32.0km/h 98% 0in /  0.0mm
04:31 45.3 °F /  7.4 °C 44.6 °F /  7.0 °C 29.4in /  996.2hPa WSW 15.2mph /  24.5km/h 23.5mph /  37.8km/h 98% 0in /  0.0mm
04:36 45.5 °F /  7.5 °C 46.4 °F /  8.0 °C 29.4in /  996.2hPa WSW 15.9mph /  25.6km/h 23.5mph /  37.8km/h 98% 0in /  0.0mm
04:41 46.2 °F /  7.9 °C 46.4 °F /  8.0 °C 29.4in /  995.1hPa SW 17.4mph /  28.0km/h 23.7mph /  38.1km/h 98% 0.01in /  0.3mm
04:46 46.4 °F /  8.0 °C 46.4 °F /  8.0 °C 29.4in /  995.1hPa WSW 22.6mph /  36.4km/h 27.1mph /  43.6km/h 98% 0.01in /  0.3mm
04:51 46.8 °F /  8.2 °C 46.4 °F /  8.0 °C 29.4in /  995.1hPa WSW 15.4mph /  24.8km/h 27.1mph /  43.6km/h 98% 0.01in /  0.3mm
04:56 47.3 °F /  8.5 °C 48.2 °F /  9.0 °C 29.4in /  994.1hPa WSW 22.4mph /  36.0km/h 27.3mph /  43.9km/h 98% 0.01in /  0.3mm
05:01 47.5 °F /  8.6 °C 48.2 °F /  9.0 °C 29.4in /  994.1hPa WSW 23.3mph /  37.5km/h 27.5mph /  44.2km/h 98% 0.01in /  0.3mm
05:06 47.7 °F /  8.7 °C 48.2 °F /  9.0 °C 29.4in /  994.1hPa West 19.2mph /  30.9km/h 31.1mph /  50.0km/h 98% 0.01in /  0.3mm
05:11 48 °F /  8.9 °C 48.2 °F /  9.0 °C 29.4in /  994.1hPa West 31.1mph /  50.0km/h 32.7mph /  52.6km/h 98% 0.01in /  0.3mm
05:16 48 °F /  8.9 °C 48.2 °F /  9.0 °C 29.4in /  994.1hPa WSW 31.3mph /  50.4km/h 32.7mph /  52.6km/h 98% 0.01in /  0.3mm
05:21 48 °F /  8.9 °C 48.2 °F /  9.0 °C 29.4in /  994.1hPa WSW 30.2mph /  48.6km/h 40.3mph /  64.8km/h 98% 0.01in /  0.3mm
05:26 48.9 °F /  9.4 °C 48.2 °F /  9.0 °C 29.3in /  993.1hPa WSW 25.7mph /  41.4km/h 40.3mph /  64.8km/h 98% 0.01in /  0.3mm
05:31 48.9 °F /  9.4 °C 48.2 °F /  9.0 °C 29.3in /  993.1hPa WSW 31.1mph /  50.0km/h 34.2mph /  55.0km/h 98% 0.01in /  0.3mm
05:36 49.3 °F /  9.6 °C 50 °F /  10.0 °C 29.3in /  993.1hPa WSW 26.2mph /  42.2km/h 45mph /  72.4km/h 98% 0in /  0.0mm
05:41 49.3 °F /  9.6 °C 50 °F /  10.0 °C 29.3in /  993.1hPa WSW 36.9mph /  59.4km/h 45mph /  72.4km/h 98% 0in /  0.0mm
05:46 49.3 °F /  9.6 °C 50 °F /  10.0 °C 29.3in /  993.1hPa WSW 25.5mph /  41.0km/h 37.1mph /  59.7km/h 98% 0in /  0.0mm
05:51 49.3 °F /  9.6 °C 50 °F /  10.0 °C 29.3in /  993.1hPa WSW 22.6mph /  36.4km/h 39.8mph /  64.0km/h 98% 0in /  0.0mm
05:56 49.3 °F /  9.6 °C 50 °F /  10.0 °C 29.3in /  993.1hPa WSW 27.7mph /  44.6km/h 39.8mph /  64.0km/h 98% 0in /  0.0mm
06:01 49.3 °F /  9.6 °C 50 °F /  10.0 °C 29.3in /  993.1hPa WSW 25.1mph /  40.4km/h 33.1mph /  53.3km/h 98% 0in /  0.0mm
06:06 49.3 °F /  9.6 °C 50 °F /  10.0 °C 29.3in /  993.1hPa WSW 32.7mph /  52.6km/h 32.7mph /  52.6km/h 98% 0in /  0.0mm
06:11 49.3 °F /  9.6 °C 50 °F /  10.0 °C 29.3in /  992.1hPa West 32.2mph /  51.8km/h 35.8mph /  57.6km/h 98% 0in /  0.0mm
06:16 49.3 °F /  9.6 °C 50 °F /  10.0 °C 29.3in /  992.1hPa WSW 22.8mph /  36.7km/h 37.6mph /  60.5km/h 98% 0in /  0.0mm
06:21 49.3 °F /  9.6 °C 50 °F /  10.0 °C 29.3in /  992.1hPa West 29.8mph /  47.9km/h 37.6mph /  60.5km/h 98% 0in /  0.0mm
06:26 49.3 °F /  9.6 °C 50 °F /  10.0 °C 29.3in /  993.1hPa West 26.8mph /  43.1km/h 34mph /  54.7km/h 98% 0in /  0.0mm
06:32 49.3 °F /  9.6 °C 50 °F /  10.0 °C 29.3in /  993.1hPa West 30.6mph /  49.2km/h 35.1mph /  56.5km/h 98% 0in /  0.0mm
06:37 49.3 °F /  9.6 °C 50 °F /  10.0 °C 29.3in /  993.1hPa West 37.1mph /  59.7km/h 37.1mph /  59.7km/h 98% 0in /  0.0mm
06:42 52 °F /  11.1 °C 50 °F /  10.0 °C 29.3in /  992.1hPa WSW 30.4mph /  48.9km/h 37.1mph /  59.7km/h 91% 0in /  0.0mm
06:47 52 °F /  11.1 °C 50 °F /  10.0 °C 29.3in /  992.1hPa WSW 32.7mph /  52.6km/h 41.2mph /  66.3km/h 91% 0in /  0.0mm
06:52 52 °F /  11.1 °C 50 °F /  10.0 °C 29.3in /  992.1hPa WSW 33.3mph /  53.6km/h 41.2mph /  66.3km/h 91% 0in /  0.0mm
06:57 52 °F /  11.1 °C 48.2 °F /  9.0 °C 29.3in /  992.1hPa WSW 24.4mph /  39.3km/h 40mph /  64.4km/h 90% 0in /  0.0mm
07:02 52.2 °F /  11.2 °C 50 °F /  10.0 °C 29.3in /  992.1hPa WSW 32.2mph /  51.8km/h 39.8mph /  64.0km/h 90% 0in /  0.0mm
07:07 52.3 °F /  11.3 °C 48.2 °F /  9.0 °C 29.3in /  992.1hPa West 34.4mph /  55.3km/h 39.8mph /  64.0km/h 88% 0in /  0.0mm
07:12 52.5 °F /  11.4 °C 48.2 °F /  9.0 °C 29.3in /  992.1hPa WSW 33.3mph /  53.6km/h 41.6mph /  66.9km/h 86% 0in /  0.0mm
07:17 52.7 °F /  11.5 °C 48.2 °F /  9.0 °C 29.3in /  992.1hPa West 30.2mph /  48.6km/h 41.6mph /  66.9km/h 85% 0in /  0.0mm
07:22 52.9 °F /  11.6 °C 48.2 °F /  9.0 °C 29.3in /  992.1hPa WNW 24.4mph /  39.3km/h 38.9mph /  62.6km/h 82% 0in /  0.0mm
07:27 53.1 °F /  11.7 °C 46.4 °F /  8.0 °C 29.3in /  993.1hPa WSW 26.2mph /  42.2km/h 56.8mph /  91.4km/h 79% 0in /  0.0mm
07:32 53.2 °F /  11.8 °C 46.4 °F /  8.0 °C 29.3in /  993.1hPa WSW 40.9mph /  65.8km/h 56.8mph /  91.4km/h 76% 0in /  0.0mm
07:37 53.2 °F /  11.8 °C 46.4 °F /  8.0 °C 29.3in /  993.1hPa WSW 31.1mph /  50.0km/h 51.7mph /  83.2km/h 77% 0in /  0.0mm
07:42 53.2 °F /  11.8 °C 46.4 °F /  8.0 °C 29.3in /  993.1hPa West 32.9mph /  52.9km/h 48.3mph /  77.7km/h 76% 0in /  0.0mm
07:47 53.2 °F /  11.8 °C 46.4 °F /  8.0 °C 29.3in /  993.1hPa West 38.7mph /  62.3km/h 48.3mph /  77.7km/h 76% 0in /  0.0mm
07:52 53.1 °F /  11.7 °C 44.6 °F /  7.0 °C 29.3in /  993.1hPa West 41.6mph /  66.9km/h 49.9mph /  80.3km/h 74% 0in /  0.0mm
07:57 53.1 °F /  11.7 °C 44.6 °F /  7.0 °C 29.3in /  993.1hPa West 27.5mph /  44.2km/h 49.9mph /  80.3km/h 73% 0in /  0.0mm
08:02 52.9 °F /  11.6 °C 44.6 °F /  7.0 °C 29.3in /  993.1hPa West 35.8mph /  57.6km/h 52.1mph /  83.8km/h 73% 0in /  0.0mm
08:07 52.7 °F /  11.5 °C 44.6 °F /  7.0 °C 29.3in /  993.1hPa SW 27.3mph /  43.9km/h 52.1mph /  83.8km/h 72% 0in /  0.0mm
08:12 52.7 °F /  11.5 °C 44.6 °F /  7.0 °C 29.4in /  994.1hPa West 35.1mph /  56.5km/h 49mph /  78.8km/h 72% 0in /  0.0mm
08:17 52.5 °F /  11.4 °C 44.6 °F /  7.0 °C 29.4in /  994.1hPa West 33.3mph /  53.6km/h 49mph /  78.8km/h 72% 0in /  0.0mm
08:22 52.2 °F /  11.2 °C 44.6 °F /  7.0 °C 29.4in /  994.1hPa West 35.6mph /  57.3km/h 45.9mph /  73.9km/h 72% 0in /  0.0mm
08:27 52 °F /  11.1 °C 42.8 °F /  6.0 °C 29.4in /  994.1hPa West 35.6mph /  57.3km/h 35.8mph /  57.6km/h 70% 0in /  0.0mm
08:32 51.8 °F /  11.0 °C 42.8 °F /  6.0 °C 29.4in /  994.1hPa West 28.6mph /  46.0km/h 40mph /  64.4km/h 70% 0in /  0.0mm
08:37 51.6 °F /  10.9 °C 42.8 °F /  6.0 °C 29.4in /  994.1hPa West 25.5mph /  41.0km/h 40mph /  64.4km/h 71% 0in /  0.0mm
08:42 51.4 °F /  10.8 °C 42.8 °F /  6.0 °C 29.4in /  995.1hPa West 17.4mph /  28.0km/h 39.4mph /  63.4km/h 72% 0in /  0.0mm
08:47 51.3 °F /  10.7 °C 42.8 °F /  6.0 °C 29.4in /  995.1hPa SW 26.4mph /  42.5km/h 34.2mph /  55.0km/h 70% 0in /  0.0mm
08:52 51.1 °F /  10.6 °C 42.8 °F /  6.0 °C 29.4in /  995.1hPa West 28.4mph /  45.7km/h 32.9mph /  52.9km/h 70% 0in /  0.0mm
08:57 51.1 °F /  10.6 °C 41 °F /  5.0 °C 29.4in /  996.2hPa West 22.1mph /  35.6km/h 32.2mph /  51.8km/h 69% 0in /  0.0mm
09:02 50.5 °F /  10.3 °C 41 °F /  5.0 °C 29.4in /  996.2hPa WSW 13.2mph /  21.2km/h 32.2mph /  51.8km/h 68% 0in /  0.0mm
09:07 50.4 °F /  10.2 °C 41 °F /  5.0 °C 29.4in /  996.2hPa West 34.2mph /  55.0km/h 34.2mph /  55.0km/h 67% 0in /  0.0mm
09:12 50.2 °F /  10.1 °C 39.2 °F /  4.0 °C 29.4in /  996.8hPa SW 21.9mph /  35.2km/h 35.1mph /  56.5km/h 64% 0in /  0.0mm
09:18 49.8 °F /  9.9 °C 37.4 °F /  3.0 °C 29.4in /  996.8hPa West 14.5mph /  23.3km/h 35.1mph /  56.5km/h 63% 0in /  0.0mm
09:23 49.8 °F /  9.9 °C 37.4 °F /  3.0 °C 29.4in /  996.8hPa West 21mph /  33.8km/h 32.4mph /  52.1km/h 62% 0in /  0.0mm
09:28 49.6 °F /  9.8 °C 37.4 °F /  3.0 °C 29.4in /  996.8hPa West 15.2mph /  24.5km/h 35.8mph /  57.6km/h 61% 0in /  0.0mm
09:33 49.6 °F /  9.8 °C 37.4 °F /  3.0 °C 29.4in /  996.8hPa WNW 24.2mph /  38.9km/h 35.8mph /  57.6km/h 62% 0in /  0.0mm
09:38 49.5 °F /  9.7 °C 37.4 °F /  3.0 °C 29.4in /  996.8hPa West 17.7mph /  28.5km/h 30.2mph /  48.6km/h 63% 0in /  0.0mm
09:43 49.3 °F /  9.6 °C 37.4 °F /  3.0 °C 29.4in /  996.8hPa West 23mph /  37.0km/h 30.2mph /  48.6km/h 62% 0in /  0.0mm
09:48 49.5 °F /  9.7 °C 37.4 °F /  3.0 °C 29.4in /  996.8hPa WNW 23.5mph /  37.8km/h 32.9mph /  52.9km/h 62% 0in /  0.0mm
09:53 49.3 °F /  9.6 °C 37.4 °F /  3.0 °C 29.4in /  996.8hPa WSW 23.3mph /  37.5km/h 32.9mph /  52.9km/h 63% 0in /  0.0mm
09:58 49.1 °F /  9.5 °C 37.4 °F /  3.0 °C 29.5in /  997.9hPa South 15.7mph /  25.3km/h 26.2mph /  42.2km/h 64% 0in /  0.0mm
10:03 49.3 °F /  9.6 °C 37.4 °F /  3.0 °C 29.5in /  997.9hPa West 25.7mph /  41.4km/h 30.2mph /  48.6km/h 63% 0in /  0.0mm
10:08 49.3 °F /  9.6 °C 37.4 °F /  3.0 °C 29.5in /  997.9hPa West 13.4mph /  21.6km/h 30.2mph /  48.6km/h 64% 0in /  0.0mm
10:13 49.3 °F /  9.6 °C 39.2 °F /  4.0 °C 29.5in /  998.9hPa West 21.3mph /  34.3km/h 29.3mph /  47.1km/h 65% 0in /  0.0mm
10:18 49.5 °F /  9.7 °C 37.4 °F /  3.0 °C 29.5in /  998.9hPa WSW 15.2mph /  24.5km/h 26.2mph /  42.2km/h 64% 0in /  0.0mm
10:23 49.5 °F /  9.7 °C 37.4 °F /  3.0 °C 29.5in /  998.9hPa WSW 18.6mph /  29.9km/h 25.1mph /  40.4km/h 64% 0in /  0.0mm
10:28 49.5 °F /  9.7 °C 39.2 °F /  4.0 °C 29.5in /  998.9hPa West 11mph /  17.7km/h 25.3mph /  40.7km/h 65% 0in /  0.0mm
10:33 49.5 °F /  9.7 °C 39.2 °F /  4.0 °C 29.5in /  998.9hPa NNE 16.8mph /  27.0km/h 25.3mph /  40.7km/h 66% 0in /  0.0mm
10:38 49.6 °F /  9.8 °C 39.2 °F /  4.0 °C 29.5in /  998.9hPa NW 8.7mph /  14.0km/h 22.4mph /  36.0km/h 65% 0in /  0.0mm
10:43 49.6 °F /  9.8 °C 37.4 °F /  3.0 °C 29.5in /  999.9hPa SSW 9.8mph /  15.8km/h 16.8mph /  27.0km/h 64% 0in /  0.0mm
10:48 49.6 °F /  9.8 °C 37.4 °F /  3.0 °C 29.5in /  999.9hPa West 11mph /  17.7km/h 20.1mph /  32.3km/h 63% 0in /  0.0mm
10:53 49.6 °F /  9.8 °C 37.4 °F /  3.0 °C 29.5in /  999.9hPa WNW 14.5mph /  23.3km/h 20.1mph /  32.3km/h 62% 0in /  0.0mm
10:58 49.6 °F /  9.8 °C 37.4 °F /  3.0 °C 29.5in /  999.9hPa WSW 10.7mph /  17.2km/h 23.9mph /  38.5km/h 61% 0in /  0.0mm
11:03 49.8 °F /  9.9 °C 37.4 °F /  3.0 °C 29.5in /  999.9hPa WSW 13mph /  20.9km/h 23.9mph /  38.5km/h 59% 0in /  0.0mm
11:08 49.5 °F /  9.7 °C 37.4 °F /  3.0 °C 29.5in /  999.9hPa WNW 12.3mph /  19.8km/h 15.9mph /  25.6km/h 61% 0in /  0.0mm
11:13 49.5 °F /  9.7 °C 37.4 °F /  3.0 °C 29.6in /  1000.9hPa WNW 10.5mph /  16.9km/h 15.9mph /  25.6km/h 61% 0in /  0.0mm
11:18 49.5 °F /  9.7 °C 37.4 °F /  3.0 °C 29.6in /  1000.9hPa WSW 9.8mph /  15.8km/h 15.4mph /  24.8km/h 61% 0in /  0.0mm
11:23 49.3 °F /  9.6 °C 37.4 °F /  3.0 °C 29.6in /  1000.9hPa WNW 9.2mph /  14.8km/h 16.1mph /  25.9km/h 60% 0in /  0.0mm
11:28 49.3 °F /  9.6 °C 35.6 °F /  2.0 °C 29.6in /  1000.9hPa West 5.6mph /  9.0km/h 20.8mph /  33.5km/h 59% 0in /  0.0mm
11:33 49.3 °F /  9.6 °C 35.6 °F /  2.0 °C 29.6in /  1000.9hPa North 11mph /  17.7km/h 20.8mph /  33.5km/h 58% 0in /  0.0mm
11:38 49.1 °F /  9.5 °C 35.6 °F /  2.0 °C 29.6in /  1000.9hPa West 4mph /  6.4km/h 20.1mph /  32.3km/h 59% 0in /  0.0mm
11:43 49.1 °F /  9.5 °C 35.6 °F /  2.0 °C 29.6in /  1000.9hPa WSW 10.3mph /  16.6km/h 18.6mph /  29.9km/h 58% 0in /  0.0mm
11:49 48.9 °F /  9.4 °C 35.6 °F /  2.0 °C 29.6in /  1000.9hPa WSW 7.8mph /  12.6km/h 23mph /  37.0km/h 58% 0in /  0.0mm
11:54 48.9 °F /  9.4 °C 33.8 °F /  1.0 °C 29.6in /  1000.9hPa WNW 13mph /  20.9km/h 23mph /  37.0km/h 57% 0in /  0.0mm
11:59 48.9 °F /  9.4 °C 35.6 °F /  2.0 °C 29.6in /  1000.9hPa West 10.1mph /  16.3km/h 22.4mph /  36.0km/h 58% 0in /  0.0mm
12:04 48.9 °F /  9.4 °C 35.6 °F /  2.0 °C 29.6in /  1000.9hPa West 9.6mph /  15.4km/h 22.4mph /  36.0km/h 59% 0in /  0.0mm
12:09 48.9 °F /  9.4 °C 35.6 °F /  2.0 °C 29.6in /  1000.9hPa West 8.5mph /  13.7km/h 17.4mph /  28.0km/h 59% 0in /  0.0mm
12:14 48.7 °F /  9.3 °C 35.6 °F /  2.0 °C 29.6in /  1001.9hPa West 3.1mph /  5.0km/h 16.8mph /  27.0km/h 60% 0in /  0.0mm
12:19 48.7 °F /  9.3 °C 35.6 °F /  2.0 °C 29.6in /  1001.9hPa West 5.4mph /  8.7km/h 17.7mph /  28.5km/h 60% 0in /  0.0mm
12:24 48.6 °F /  9.2 °C 35.6 °F /  2.0 °C 29.6in /  1001.9hPa WNW 12.3mph /  19.8km/h 17.7mph /  28.5km/h 60% 0in /  0.0mm
12:29 48.6 °F /  9.2 °C 35.6 °F /  2.0 °C 29.6in /  1001.9hPa North 13.2mph /  21.2km/h 14.3mph /  23.0km/h 61% 0in /  0.0mm
12:34 48.7 °F /  9.3 °C 35.6 °F /  2.0 °C 29.6in /  1001.9hPa West 6.7mph /  10.8km/h 15.4mph /  24.8km/h 61% 0in /  0.0mm
12:39 48.7 °F /  9.3 °C 35.6 °F /  2.0 °C 29.6in /  1001.9hPa South 5.6mph /  9.0km/h 19.9mph /  32.0km/h 61% 0in /  0.0mm
12:44 48.9 °F /  9.4 °C 35.6 °F /  2.0 °C 29.6in /  1001.9hPa WNW 11mph /  17.7km/h 19.9mph /  32.0km/h 59% 0in /  0.0mm
12:49 49.1 °F /  9.5 °C 35.6 °F /  2.0 °C 29.6in /  1001.9hPa WSW 8.5mph /  13.7km/h 22.8mph /  36.7km/h 59% 0in /  0.0mm
12:54 49.8 °F /  9.9 °C 37.4 °F /  3.0 °C 29.6in /  1001.9hPa WNW 5.8mph /  9.3km/h 22.8mph /  36.7km/h 60% 0in /  0.0mm
12:59 49.6 °F /  9.8 °C 35.6 °F /  2.0 °C 29.6in /  1001.9hPa WSW 10.7mph /  17.2km/h 17.4mph /  28.0km/h 58% 0in /  0.0mm
13:04 49.8 °F /  9.9 °C 35.6 °F /  2.0 °C 29.6in /  1001.9hPa West 7.4mph /  11.9km/h 17.7mph /  28.5km/h 57% 0in /  0.0mm
13:09 49.1 °F /  9.5 °C 35.6 °F /  2.0 °C 29.6in /  1001.9hPa North 13.2mph /  21.2km/h 17.7mph /  28.5km/h 58% 0in /  0.0mm
13:14 49.3 °F /  9.6 °C 37.4 °F /  3.0 °C 29.6in /  1001.9hPa WNW 7.4mph /  11.9km/h 16.6mph /  26.7km/h 60% 0in /  0.0mm
13:19 49.6 °F /  9.8 °C 37.4 °F /  3.0 °C 29.6in /  1001.9hPa WNW 9.4mph /  15.1km/h 15.2mph /  24.5km/h 61% 0in /  0.0mm
13:24 49.5 °F /  9.7 °C 35.6 °F /  2.0 °C 29.6in /  1001.9hPa WNW 4mph /  6.4km/h 15.2mph /  24.5km/h 58% 0in /  0.0mm
13:29 49.5 °F /  9.7 °C 37.4 °F /  3.0 °C 29.6in /  1001.9hPa WNW 13.9mph /  22.4km/h 15.2mph /  24.5km/h 60% 0in /  0.0mm
13:34 49.5 °F /  9.7 °C 37.4 °F /  3.0 °C 29.6in /  1001.9hPa WNW 10.1mph /  16.3km/h 15.4mph /  24.8km/h 60% 0in /  0.0mm
13:39 49.6 °F /  9.8 °C 35.6 °F /  2.0 °C 29.6in /  1001.9hPa NNW 7.8mph /  12.6km/h 15.7mph /  25.3km/h 59% 0in /  0.0mm
13:44 50.2 °F /  10.1 °C 37.4 °F /  3.0 °C 29.6in /  1001.9hPa WNW 9.8mph /  15.8km/h 15.7mph /  25.3km/h 60% 0in /  0.0mm
13:49 50.4 °F /  10.2 °C 37.4 °F /  3.0 °C 29.6in /  1001.9hPa WSW 10.7mph /  17.2km/h 14.3mph /  23.0km/h 59% 0in /  0.0mm
13:54 50.9 °F /  10.5 °C 37.4 °F /  3.0 °C 29.6in /  1001.9hPa NW 7.4mph /  11.9km/h 14.3mph /  23.0km/h 61% 0in /  0.0mm
13:59 50.7 °F /  10.4 °C 37.4 °F /  3.0 °C 29.6in /  1001.9hPa West 10.5mph /  16.9km/h 17.2mph /  27.7km/h 59% 0in /  0.0mm
14:05 51.1 °F /  10.6 °C 37.4 °F /  3.0 °C 29.6in /  1001.9hPa West 6.3mph /  10.1km/h 17.2mph /  27.7km/h 59% 0in /  0.0mm
14:10 50.7 °F /  10.4 °C 37.4 °F /  3.0 °C 29.6in /  1001.9hPa West 17.7mph /  28.5km/h 21.5mph /  34.6km/h 58% 0in /  0.0mm
14:15 50.4 °F /  10.2 °C 37.4 °F /  3.0 °C 29.6in /  1001.9hPa West 17.4mph /  28.0km/h 21.5mph /  34.6km/h 59% 0in /  0.0mm
14:20 50 °F /  10.0 °C 35.6 °F /  2.0 °C 29.6in /  1001.9hPa West 10.7mph /  17.2km/h 22.6mph /  36.4km/h 58% 0in /  0.0mm
14:25 49.8 °F /  9.9 °C 37.4 °F /  3.0 °C 29.6in /  1001.9hPa West 8.7mph /  14.0km/h 22.6mph /  36.4km/h 59% 0in /  0.0mm
14:30 49.8 °F /  9.9 °C 37.4 °F /  3.0 °C 29.6in /  1001.9hPa NNW 12.8mph /  20.6km/h 17.2mph /  27.7km/h 59% 0in /  0.0mm
14:35 49.8 °F /  9.9 °C 37.4 °F /  3.0 °C 29.6in /  1001.9hPa West 8.7mph /  14.0km/h 15.4mph /  24.8km/h 59% 0in /  0.0mm
14:40 49.8 °F /  9.9 °C 37.4 °F /  3.0 °C 29.6in /  1001.9hPa West 5.8mph /  9.3km/h 15.4mph /  24.8km/h 59% 0in /  0.0mm
14:45 49.8 °F /  9.9 °C 37.4 °F /  3.0 °C 29.6in /  1001.9hPa WSW 10.7mph /  17.2km/h 12.8mph /  20.6km/h 59% 0in /  0.0mm
14:50 49.8 °F /  9.9 °C 37.4 °F /  3.0 °C 29.6in /  1001.9hPa West 7.8mph /  12.6km/h 15.2mph /  24.5km/h 59% 0in /  0.0mm
14:55 49.8 °F /  9.9 °C 37.4 °F /  3.0 °C 29.6in /  1001.9hPa WSW 13.9mph /  22.4km/h 15.2mph /  24.5km/h 59% 0in /  0.0mm
15:00 49.8 °F /  9.9 °C 37.4 °F /  3.0 °C 29.6in /  1001.9hPa WSW 7.8mph /  12.6km/h 17.7mph /  28.5km/h 59% 0in /  0.0mm
15:05 49.8 °F /  9.9 °C 37.4 °F /  3.0 °C 29.6in /  1001.9hPa West 7.4mph /  11.9km/h 17.7mph /  28.5km/h 59% 0in /  0.0mm
15:10 49.8 °F /  9.9 °C 37.4 °F /  3.0 °C 29.6in /  1001.9hPa West 5.8mph /  9.3km/h 13mph /  20.9km/h 59% 0in /  0.0mm
15:15 48 °F /  8.9 °C 37.4 °F /  3.0 °C 29.6in /  1001.9hPa West 6mph /  9.7km/h 13mph /  20.9km/h 64% 0in /  0.0mm
15:20 48 °F /  8.9 °C 37.4 °F /  3.0 °C 29.6in /  1001.9hPa West 5.4mph /  8.7km/h 10.3mph /  16.6km/h 64% 0in /  0.0mm
15:25 48 °F /  8.9 °C 37.4 °F /  3.0 °C 29.6in /  1001.9hPa WSW 7.4mph /  11.9km/h 11.9mph /  19.1km/h 64% 0in /  0.0mm
15:30 48 °F /  8.9 °C 37.4 °F /  3.0 °C 29.6in /  1001.9hPa West 15.2mph /  24.5km/h 15.9mph /  25.6km/h 67% 0in /  0.0mm
15:36 48 °F /  8.9 °C 37.4 °F /  3.0 °C 29.6in /  1001.9hPa West 8.7mph /  14.0km/h 15.9mph /  25.6km/h 67% 0in /  0.0mm
15:41 47.7 °F /  8.7 °C 37.4 °F /  3.0 °C 29.6in /  1001.9hPa WSW 12.1mph /  19.5km/h 15.2mph /  24.5km/h 67% 0in /  0.0mm
15:46 47.7 °F /  8.7 °C 37.4 °F /  3.0 °C 29.6in /  1001.9hPa West 8.7mph /  14.0km/h 15.4mph /  24.8km/h 67% 0in /  0.0mm
15:51 47.7 °F /  8.7 °C 37.4 °F /  3.0 °C 29.6in /  1001.9hPa WNW 5.8mph /  9.3km/h 15.4mph /  24.8km/h 67% 0in /  0.0mm
15:56 47.3 °F /  8.5 °C 37.4 °F /  3.0 °C 29.6in /  1001.9hPa WSW 13mph /  20.9km/h 13mph /  20.9km/h 68% 0in /  0.0mm
16:01 47.3 °F /  8.5 °C 37.4 °F /  3.0 °C 29.6in /  1001.9hPa West 3.6mph /  5.8km/h 13mph /  20.9km/h 68% 0in /  0.0mm
16:06 47.3 °F /  8.5 °C 37.4 °F /  3.0 °C 29.6in /  1001.9hPa West 8.7mph /  14.0km/h 11.9mph /  19.1km/h 68% 0in /  0.0mm
16:11 47.3 °F /  8.5 °C 37.4 °F /  3.0 °C 29.6in /  1001.9hPa West 2mph /  3.2km/h 8.7mph /  14.0km/h 68% 0in /  0.0mm
16:16 47.3 °F /  8.5 °C 37.4 °F /  3.0 °C 29.6in /  1001.9hPa Calm   8.5mph /  13.7km/h 68% 0in /  0.0mm
16:21 46.8 °F /  8.2 °C 37.4 °F /  3.0 °C 29.6in /  1001.9hPa West 2.7mph /  4.3km/h 7.2mph /  11.6km/h 71% 0in /  0.0mm
16:26 46.8 °F /  8.2 °C 37.4 °F /  3.0 °C 29.6in /  1001.9hPa West 2.9mph /  4.7km/h 7.6mph /  12.2km/h 71% 0in /  0.0mm
16:31 46.8 °F /  8.2 °C 37.4 °F /  3.0 °C 29.6in /  1001.9hPa WSW 5.4mph /  8.7km/h 7.6mph /  12.2km/h 71% 0in /  0.0mm
16:36 46.2 °F /  7.9 °C 37.4 °F /  3.0 °C 29.6in /  1001.9hPa West 4mph /  6.4km/h 7.6mph /  12.2km/h 73% 0in /  0.0mm
16:41 46.2 °F /  7.9 °C 37.4 °F /  3.0 °C 29.6in /  1001.9hPa West 2.7mph /  4.3km/h 7.4mph /  11.9km/h 73% 0in /  0.0mm
16:46 45.9 °F /  7.7 °C 37.4 °F /  3.0 °C 29.6in /  1001.9hPa Calm   7.4mph /  11.9km/h 73% 0in /  0.0mm
16:51 45.5 °F /  7.5 °C 37.4 °F /  3.0 °C 29.6in /  1001.9hPa West 5.8mph /  9.3km/h 5.8mph /  9.3km/h 74% 0in /  0.0mm
16:56 45.1 °F /  7.3 °C 37.4 °F /  3.0 °C 29.6in /  1001.9hPa West 3.8mph /  6.1km/h 6mph /  9.7km/h 74% 0in /  0.0mm
17:02 44.8 °F /  7.1 °C 37.4 °F /  3.0 °C 29.6in /  1001.9hPa Calm   6mph /  9.7km/h 74% 0in /  0.0mm
17:07 44.6 °F /  7.0 °C 37.4 °F /  3.0 °C 29.6in /  1001.9hPa West 2.5mph /  4.0km/h 8.5mph /  13.7km/h 75% 0in /  0.0mm
17:12 44.6 °F /  7.0 °C 37.4 °F /  3.0 °C 29.6in /  1001.9hPa WSW 2.7mph /  4.3km/h 8.5mph /  13.7km/h 75% 0in /  0.0mm
17:17 44.6 °F /  7.0 °C 37.4 °F /  3.0 °C 29.6in /  1001.9hPa West 4.9mph /  7.9km/h 6.5mph /  10.5km/h 75% 0in /  0.0mm
17:22 44.8 °F /  7.1 °C 37.4 °F /  3.0 °C 29.6in /  1001.9hPa West 4.7mph /  7.6km/h 7.2mph /  11.6km/h 77% 0in /  0.0mm
17:27 44.8 °F /  7.1 °C 37.4 °F /  3.0 °C 29.6in /  1001.9hPa West 3.6mph /  5.8km/h 7.2mph /  11.6km/h 77% 0in /  0.0mm
17:32 44.6 °F /  7.0 °C 37.4 °F /  3.0 °C 29.6in /  1001.9hPa WSW 6.5mph /  10.5km/h 7.2mph /  11.6km/h 77% 0in /  0.0mm
17:37 32 °F /  0.0 °C 37.4 °F /  3.0 °C 0in /  0.0hPa Calm     0% 0in /  0.0mm
17:42 32 °F /  0.0 °C 37.4 °F /  3.0 °C 29.6in /  1001.9hPa Calm     0% 0in /  0.0mm
17:47 32 °F /  0.0 °C 37.4 °F /  3.0 °C 29.6in /  1001.9hPa WSW 4.9mph /  7.9km/h 5.6mph /  9.0km/h 0% 0in /  0.0mm
17:52 43.9 °F /  6.6 °C 39.2 °F /  4.0 °C 29.6in /  1001.9hPa West 5.6mph /  9.0km/h 6.5mph /  10.5km/h 80% 0in /  0.0mm
17:57 43.9 °F /  6.6 °C 39.2 °F /  4.0 °C 29.6in /  1001.9hPa WSW 6.5mph /  10.5km/h 7.8mph /  12.6km/h 81% 0in /  0.0mm
18:02 43.9 °F /  6.6 °C 39.2 °F /  4.0 °C 29.6in /  1001.9hPa WSW 5.8mph /  9.3km/h 7.8mph /  12.6km/h 82% 0in /  0.0mm
18:08 43.7 °F /  6.5 °C 39.2 °F /  4.0 °C 29.6in /  1001.9hPa WSW 4.9mph /  7.9km/h 6.5mph /  10.5km/h 83% 0in /  0.0mm
18:12 43.7 °F /  6.5 °C 39.2 °F /  4.0 °C 29.6in /  1001.9hPa WSW 5.4mph /  8.7km/h 6.5mph /  10.5km/h 83% 0in /  0.0mm
18:18 43.7 °F /  6.5 °C 39.2 °F /  4.0 °C 29.6in /  1001.9hPa WSW 6.3mph /  10.1km/h 7.8mph /  12.6km/h 83% 0in /  0.0mm
18:23 43.7 °F /  6.5 °C 39.2 °F /  4.0 °C 29.6in /  1001.9hPa WSW 5.4mph /  8.7km/h 7.8mph /  12.6km/h 83% 0in /  0.0mm
18:28 43.7 °F /  6.5 °C 39.2 °F /  4.0 °C 29.6in /  1001.9hPa WSW 6mph /  9.7km/h 6.5mph /  10.5km/h 83% 0in /  0.0mm
18:33 43.7 °F /  6.5 °C 39.2 °F /  4.0 °C 29.6in /  1001.9hPa WSW 6.3mph /  10.1km/h 6.5mph /  10.5km/h 83% 0in /  0.0mm
18:38 43.9 °F /  6.6 °C 41 °F /  5.0 °C 29.6in /  1001.9hPa WSW 5.8mph /  9.3km/h 7.2mph /  11.6km/h 85% 0in /  0.0mm
18:43 44.1 °F /  6.7 °C 41 °F /  5.0 °C 29.6in /  1001.9hPa WSW 4.9mph /  7.9km/h 7.8mph /  12.6km/h 86% 0in /  0.0mm
18:48 44.2 °F /  6.8 °C 41 °F /  5.0 °C 29.6in /  1001.9hPa WSW 8.7mph /  14.0km/h 8.7mph /  14.0km/h 86% 0in /  0.0mm
18:58 44.6 °F /  7.0 °C 41 °F /  5.0 °C 29.6in /  1001.9hPa West 6.3mph /  10.1km/h 8.7mph /  14.0km/h 87% 0in /  0.0mm
19:03 44.6 °F /  7.0 °C 41 °F /  5.0 °C 29.6in /  1001.9hPa WSW 7.8mph /  12.6km/h 8.7mph /  14.0km/h 86% 0in /  0.0mm
19:08 44.6 °F /  7.0 °C 41 °F /  5.0 °C 29.6in /  1001.9hPa WSW 6.3mph /  10.1km/h 9.8mph /  15.8km/h 86% 0in /  0.0mm
19:13 44.6 °F /  7.0 °C 41 °F /  5.0 °C 29.6in /  1001.9hPa West 7.2mph /  11.6km/h 9.8mph /  15.8km/h 86% 0in /  0.0mm
19:18 44.6 °F /  7.0 °C 41 °F /  5.0 °C 29.6in /  1001.9hPa WSW 7.8mph /  12.6km/h 9.8mph /  15.8km/h 86% 0in /  0.0mm
19:23 44.6 °F /  7.0 °C 41 °F /  5.0 °C 29.6in /  1001.9hPa WSW 7.6mph /  12.2km/h 8.9mph /  14.3km/h 86% 0in /  0.0mm
19:28 44.6 °F /  7.0 °C 41 °F /  5.0 °C 29.6in /  1001.9hPa WSW 6.3mph /  10.1km/h 8.7mph /  14.0km/h 86% 0in /  0.0mm
19:33 43.9 °F /  6.6 °C 41 °F /  5.0 °C 29.6in /  1001.9hPa WSW 6.5mph /  10.5km/h 8.7mph /  14.0km/h 87% 0in /  0.0mm
19:38 43.7 °F /  6.5 °C 41 °F /  5.0 °C 29.6in /  1001.9hPa WSW 6.3mph /  10.1km/h 9.8mph /  15.8km/h 87% 0in /  0.0mm
19:43 43.5 °F /  6.4 °C 41 °F /  5.0 °C 29.6in /  1001.9hPa WSW 6.5mph /  10.5km/h 9.8mph /  15.8km/h 87% 0in /  0.0mm
19:48 43.3 °F /  6.3 °C 41 °F /  5.0 °C 29.6in /  1001.9hPa WSW 6.3mph /  10.1km/h 10.3mph /  16.6km/h 88% 0in /  0.0mm
19:53 43.5 °F /  6.4 °C 41 °F /  5.0 °C 29.6in /  1001.9hPa West 10.1mph /  16.3km/h 11mph /  17.7km/h 89% 0in /  0.0mm
19:58 43.5 °F /  6.4 °C 41 °F /  5.0 °C 29.6in /  1001.9hPa WSW 6mph /  9.7km/h 11mph /  17.7km/h 90% 0in /  0.0mm
20:03 43.5 °F /  6.4 °C 41 °F /  5.0 °C 29.6in /  1001.9hPa WSW 4.3mph /  6.9km/h 11mph /  17.7km/h 90% 0in /  0.0mm
20:08 43.5 °F /  6.4 °C 41 °F /  5.0 °C 29.6in /  1001.9hPa West 6mph /  9.7km/h 8.5mph /  13.7km/h 90% 0in /  0.0mm
20:13 43.5 °F /  6.4 °C 41 °F /  5.0 °C 29.6in /  1001.9hPa West 13mph /  20.9km/h 13mph /  20.9km/h 91% 0in /  0.0mm
20:19 43.5 °F /  6.4 °C 41 °F /  5.0 °C 29.6in /  1001.9hPa WSW 7.2mph /  11.6km/h 13mph /  20.9km/h 91% 0in /  0.0mm
20:24 43.7 °F /  6.5 °C 42.8 °F /  6.0 °C 29.6in /  1001.9hPa West 7.6mph /  12.2km/h 12.1mph /  19.5km/h 91% 0in /  0.0mm
20:29 43.7 °F /  6.5 °C 41 °F /  5.0 °C 29.6in /  1001.9hPa SW 7.4mph /  11.9km/h 12.1mph /  19.5km/h 90% 0in /  0.0mm
20:34 43.7 °F /  6.5 °C 41 °F /  5.0 °C 29.6in /  1001.9hPa West 7.6mph /  12.2km/h 10.5mph /  16.9km/h 89% 0in /  0.0mm
20:39 43.5 °F /  6.4 °C 41 °F /  5.0 °C 29.6in /  1001.9hPa West 8.9mph /  14.3km/h 10.5mph /  16.9km/h 88% 0in /  0.0mm
20:44 43.5 °F /  6.4 °C 41 °F /  5.0 °C 29.6in /  1002.9hPa West 10.7mph /  17.2km/h 13.2mph /  21.2km/h 88% 0in /  0.0mm
20:49 43.5 °F /  6.4 °C 41 °F /  5.0 °C 29.6in /  1002.9hPa West 8.5mph /  13.7km/h 13.2mph /  21.2km/h 87% 0in /  0.0mm
20:54 43.5 °F /  6.4 °C 41 °F /  5.0 °C 29.6in /  1002.9hPa WNW 3.8mph /  6.1km/h 12.3mph /  19.8km/h 87% 0in /  0.0mm
20:59 43.7 °F /  6.5 °C 41 °F /  5.0 °C 29.6in /  1002.9hPa WSW 6mph /  9.7km/h 12.3mph /  19.8km/h 88% 0in /  0.0mm
21:04 43.7 °F /  6.5 °C 41 °F /  5.0 °C 29.6in /  1002.9hPa West 8.5mph /  13.7km/h 12.3mph /  19.8km/h 87% 0in /  0.0mm
21:09 43.7 °F /  6.5 °C 41 °F /  5.0 °C 29.6in /  1002.9hPa West 3.8mph /  6.1km/h 12.3mph /  19.8km/h 87% 0in /  0.0mm
21:14 43.5 °F /  6.4 °C 41 °F /  5.0 °C 29.6in /  1002.9hPa West 6mph /  9.7km/h 8.7mph /  14.0km/h 87% 0in /  0.0mm
21:19 43.3 °F /  6.3 °C 41 °F /  5.0 °C 29.6in /  1002.9hPa West 4.3mph /  6.9km/h 8.5mph /  13.7km/h 87% 0in /  0.0mm
21:24 43 °F /  6.1 °C 39.2 °F /  4.0 °C 29.6in /  1002.9hPa West 6mph /  9.7km/h 8.5mph /  13.7km/h 86% 0in /  0.0mm
21:29 42.6 °F /  5.9 °C 39.2 °F /  4.0 °C 29.6in /  1002.9hPa West 2.2mph /  3.5km/h 6.3mph /  10.1km/h 87% 0in /  0.0mm
21:34 42.4 °F /  5.8 °C 39.2 °F /  4.0 °C 29.6in /  1002.9hPa Calm   4.3mph /  6.9km/h 87% 0in /  0.0mm
21:39 42.4 °F /  5.8 °C 39.2 °F /  4.0 °C 29.6in /  1002.9hPa WNW 5.8mph /  9.3km/h 6.3mph /  10.1km/h 87% 0in /  0.0mm
21:45 42.4 °F /  5.8 °C 39.2 °F /  4.0 °C 29.6in /  1002.9hPa Calm   6.3mph /  10.1km/h 87% 0in /  0.0mm
21:50 42.4 °F /  5.8 °C 39.2 °F /  4.0 °C 29.6in /  1002.9hPa NNW 3.4mph /  5.5km/h 7.6mph /  12.2km/h 87% 0in /  0.0mm
21:55 42.4 °F /  5.8 °C 39.2 °F /  4.0 °C 29.6in /  1002.9hPa WNW 1.3mph /  2.1km/h 8.1mph /  13.0km/h 87% 0in /  0.0mm
22:00 42.3 °F /  5.7 °C 39.2 °F /  4.0 °C 29.6in /  1002.9hPa Calm   8.1mph /  13.0km/h 87% 0in /  0.0mm
22:05 42.1 °F /  5.6 °C 39.2 °F /  4.0 °C 29.6in /  1002.9hPa Calm   6.3mph /  10.1km/h 87% 0in /  0.0mm
22:10 41.9 °F /  5.5 °C 39.2 °F /  4.0 °C 29.6in /  1002.9hPa West 2.7mph /  4.3km/h 6.3mph /  10.1km/h 87% 0in /  0.0mm
22:15 41.7 °F /  5.4 °C 39.2 °F /  4.0 °C 29.6in /  1002.9hPa West 2.2mph /  3.5km/h 6.3mph /  10.1km/h 87% 0in /  0.0mm
22:20 41.5 °F /  5.3 °C 39.2 °F /  4.0 °C 29.6in /  1002.9hPa West 1.6mph /  2.6km/h 8.1mph /  13.0km/h 87% 0in /  0.0mm
22:25 41.4 °F /  5.2 °C 37.4 °F /  3.0 °C 29.6in /  1002.9hPa WNW 2mph /  3.2km/h 8.1mph /  13.0km/h 87% 0in /  0.0mm
22:30 41.4 °F /  5.2 °C 37.4 °F /  3.0 °C 29.6in /  1002.9hPa West 7.8mph /  12.6km/h 7.8mph /  12.6km/h 87% 0in /  0.0mm
22:35 41.2 °F /  5.1 °C 37.4 °F /  3.0 °C 29.6in /  1002.9hPa WNW 4.9mph /  7.9km/h 7.8mph /  12.6km/h 88% 0in /  0.0mm
22:40 41 °F /  5.0 °C 37.4 °F /  3.0 °C 29.6in /  1002.9hPa West 5.8mph /  9.3km/h 7.6mph /  12.2km/h 88% 0in /  0.0mm
22:45 40.8 °F /  4.9 °C 37.4 °F /  3.0 °C 29.6in /  1002.9hPa West 4mph /  6.4km/h 7.8mph /  12.6km/h 88% 0in /  0.0mm
22:51 40.6 °F /  4.8 °C 37.4 °F /  3.0 °C 29.6in /  1002.9hPa WSW 4.3mph /  6.9km/h 7.8mph /  12.6km/h 89% 0in /  0.0mm
22:56 40.6 °F /  4.8 °C 37.4 °F /  3.0 °C 29.6in /  1002.9hPa West 2.9mph /  4.7km/h 6.5mph /  10.5km/h 89% 0in /  0.0mm
23:01 40.6 °F /  4.8 °C 37.4 °F /  3.0 °C 29.6in /  1003.9hPa West 2.5mph /  4.0km/h 8.1mph /  13.0km/h 89% 0in /  0.0mm
23:06 40.6 °F /  4.8 °C 37.4 °F /  3.0 °C 29.6in /  1003.9hPa West 7.6mph /  12.2km/h 9.2mph /  14.8km/h 90% 0in /  0.0mm
23:11 40.5 °F /  4.7 °C 37.4 °F /  3.0 °C 29.6in /  1003.9hPa West 5.4mph /  8.7km/h 9.2mph /  14.8km/h 90% 0in /  0.0mm
23:16 40.5 °F /  4.7 °C 37.4 °F /  3.0 °C 29.6in /  1003.9hPa WSW 5.8mph /  9.3km/h 7.4mph /  11.9km/h 90% 0in /  0.0mm
23:21 40.3 °F /  4.6 °C 37.4 °F /  3.0 °C 29.6in /  1003.9hPa West 8.1mph /  13.0km/h 8.1mph /  13.0km/h 90% 0in /  0.0mm
23:26 40.1 °F /  4.5 °C 37.4 °F /  3.0 °C 29.6in /  1003.9hPa WSW 6.9mph /  11.1km/h 8.1mph /  13.0km/h 90% 0in /  0.0mm
23:31 40.1 °F /  4.5 °C 37.4 °F /  3.0 °C 29.7in /  1005.0hPa West 6mph /  9.7km/h 8.1mph /  13.0km/h 91% 0in /  0.0mm
23:36 40.1 °F /  4.5 °C 37.4 °F /  3.0 °C 29.7in /  1005.0hPa WSW 7.2mph /  11.6km/h 8.5mph /  13.7km/h 92% 0in /  0.0mm
23:41 40.1 °F /  4.5 °C 37.4 °F /  3.0 °C 29.7in /  1005.0hPa West 4.9mph /  7.9km/h 8.5mph /  13.7km/h 92% 0in /  0.0mm
23:46 40.3 °F /  4.6 °C 39.2 °F /  4.0 °C 29.7in /  1005.0hPa West 5.8mph /  9.3km/h 8.1mph /  13.0km/h 93% 0in /  0.0mm
23:51 40.1 °F /  4.5 °C 39.2 °F /  4.0 °C 29.7in /  1005.0hPa West 6mph /  9.7km/h 8.1mph /  13.0km/h 93% 0in /  0.0mm
23:56 40.1 °F /  4.5 °C 39.2 °F /  4.0 °C 29.7in /  1005.0hPa West 6.3mph /  10.1km/h 8.5mph /  13.7km/h 93% 0in /  0.0mm
Données Historique de Météo Turbie

Mise a jour : 25/05/2018 07:12:17
Généré par Cumulus 1.9.4 (1099)